createdAt,value
2022-08-03T00:01:30.421Z,100.00
2022-08-03T00:03:58.150Z,100.00
2022-08-03T00:06:27.243Z,100.00
2022-08-03T00:08:54.964Z,100.00
2022-08-03T00:11:24.840Z,100.00
2022-08-03T00:13:52.521Z,100.00
2022-08-03T00:16:20.570Z,100.00
2022-08-03T00:18:50.786Z,100.00
2022-08-03T00:21:18.521Z,100.00
2022-08-03T00:23:51.342Z,100.00
2022-08-03T00:26:20.485Z,100.00
2022-08-03T00:28:48.274Z,100.00
2022-08-03T00:31:15.928Z,100.00
2022-08-03T00:33:58.341Z,100.00
2022-08-03T00:36:27.546Z,100.00
2022-08-03T00:38:56.785Z,100.00
2022-08-03T00:41:24.491Z,100.00
2022-08-03T00:43:52.239Z,100.00
2022-08-03T00:46:22.209Z,100.00
2022-08-03T00:48:50.301Z,100.00
2022-08-03T00:51:18.253Z,100.00
2022-08-03T00:53:48.253Z,100.00
2022-08-03T00:56:18.239Z,100.00
2022-08-03T00:58:47.328Z,100.00
2022-08-03T01:01:16.155Z,100.00
2022-08-03T01:03:45.413Z,100.00
2022-08-03T01:06:18.669Z,100.00
2022-08-03T01:08:54.372Z,100.00
2022-08-03T01:11:33.632Z,100.00
2022-08-03T01:14:19.376Z,100.00
2022-08-03T01:16:55.882Z,100.00
2022-08-03T01:19:46.333Z,100.00
2022-08-03T01:22:36.295Z,100.00
2022-08-03T01:25:09.481Z,100.00
2022-08-03T01:27:51.162Z,100.00
2022-08-03T01:30:20.445Z,100.00
2022-08-03T01:33:02.618Z,100.00
2022-08-03T01:35:35.521Z,100.00
2022-08-03T01:38:10.948Z,100.00
2022-08-03T01:40:42.286Z,100.00
2022-08-03T01:43:13.428Z,100.00
2022-08-03T01:45:44.890Z,100.00
2022-08-03T01:48:14.512Z,100.00
2022-08-03T01:50:43.584Z,100.00
2022-08-03T01:53:15.512Z,100.00
2022-08-03T01:55:44.339Z,100.00
2022-08-03T01:58:14.749Z,100.00
2022-08-03T02:00:50.063Z,100.00
2022-08-03T02:03:19.521Z,100.00
2022-08-03T02:05:49.933Z,100.00
2022-08-03T02:08:25.138Z,100.00
2022-08-03T02:10:53.723Z,100.00
2022-08-03T02:13:23.049Z,100.00
2022-08-03T02:15:53.349Z,100.00
2022-08-03T02:18:22.783Z,100.00
2022-08-03T02:20:51.536Z,100.00
2022-08-03T02:23:19.897Z,100.00
2022-08-03T02:25:52.023Z,100.00
2022-08-03T02:28:23.211Z,100.00
2022-08-03T02:30:55.897Z,100.00
2022-08-03T02:33:28.147Z,100.00
2022-08-03T02:35:58.994Z,100.00
2022-08-03T02:38:35.546Z,100.00
2022-08-03T08:42:20.627Z,65.41
2022-08-03T08:44:49.726Z,63.15
2022-08-03T08:47:19.783Z,67.36
2022-08-03T08:50:08.936Z,67.18
2022-08-03T08:52:42.128Z,65.79
2022-08-03T08:55:11.634Z,63.99
2022-08-03T08:57:43.792Z,63.03
2022-08-03T09:00:14.521Z,64.42
2022-08-03T09:02:44.430Z,63.06
2022-08-03T09:05:13.366Z,63.80
2022-08-03T09:07:41.227Z,61.58
2022-08-03T09:10:13.493Z,59.76
2022-08-03T09:12:44.702Z,59.80
2022-08-03T09:15:25.345Z,62.96
2022-08-03T09:17:55.071Z,63.02
2022-08-03T09:20:25.466Z,60.90
2022-08-03T09:22:56.278Z,58.24
2022-08-03T09:25:34.759Z,56.20
2022-08-03T09:28:08.435Z,56.32
2022-08-03T09:30:38.590Z,52.84
2022-08-03T09:33:08.397Z,53.09
2022-08-03T09:35:58.028Z,54.42
2022-08-03T09:38:27.444Z,54.27
2022-08-03T09:41:00.109Z,53.26
2022-08-03T09:43:28.609Z,54.19
2022-08-03T09:46:07.295Z,48.26
2022-08-03T09:48:36.773Z,50.41
2022-08-03T09:51:13.827Z,49.23
2022-08-03T09:53:59.428Z,49.58
2022-08-03T09:56:40.529Z,49.58
2022-08-03T09:59:08.296Z,48.61
2022-08-03T10:01:39.589Z,49.04
2022-08-03T10:04:07.291Z,47.27
2022-08-03T10:06:35.046Z,46.43
2022-08-03T10:09:08.119Z,48.47
2022-08-03T10:11:40.914Z,47.50
2022-08-03T10:14:10.905Z,50.31
2022-08-03T10:16:41.163Z,51.32
2022-08-03T10:19:10.584Z,53.62
2022-08-03T10:21:40.163Z,53.25
2022-08-03T10:24:10.693Z,52.40
2022-08-03T10:26:49.788Z,50.35
2022-08-03T10:29:24.376Z,51.71
2022-08-03T10:31:58.404Z,52.14
2022-08-03T10:34:28.407Z,44.55
2022-08-03T10:37:00.180Z,43.82
2022-08-03T10:39:30.541Z,44.51
2022-08-03T10:42:00.038Z,44.26
2022-08-03T10:44:34.903Z,46.60
2022-08-03T10:47:05.492Z,45.64
2022-08-03T10:49:35.619Z,45.59
2022-08-03T10:52:12.956Z,40.72
2022-08-03T10:54:57.042Z,38.52
2022-08-03T10:57:48.866Z,37.86
2022-08-03T11:00:19.169Z,38.85
2022-08-03T11:03:09.973Z,36.27
2022-08-03T11:05:42.888Z,34.73
2022-08-03T11:08:28.965Z,33.19
2022-08-03T11:10:59.401Z,31.85
2022-08-03T11:13:30.949Z,32.66
2022-08-03T11:16:21.866Z,33.26
2022-08-03T11:18:59.561Z,31.99
2022-08-03T11:21:58.867Z,30.78
2022-08-03T11:24:58.224Z,35.04
2022-08-03T11:27:27.973Z,31.15
2022-08-03T11:29:57.734Z,32.95
2022-08-03T11:32:54.487Z,30.88
2022-08-03T11:35:25.543Z,32.37
2022-08-03T11:38:05.309Z,32.10
2022-08-03T11:40:38.689Z,30.80
2022-08-03T11:43:08.004Z,32.31
2022-08-03T11:45:36.410Z,29.87
2022-08-03T11:48:15.430Z,31.80
2022-08-03T11:50:46.210Z,29.28
2022-08-03T11:53:18.183Z,29.37
2022-08-03T11:55:48.910Z,32.90
2022-08-03T11:59:00.814Z,32.40
2022-08-03T12:01:07.119Z,32.75
2022-08-03T12:03:36.279Z,29.42
2022-08-03T12:06:10.826Z,30.72
2022-08-03T12:08:38.527Z,30.38
2022-08-03T12:11:08.860Z,31.01
2022-08-03T12:14:36.708Z,30.63
2022-08-03T12:16:29.663Z,30.33
2022-08-03T12:18:59.440Z,30.93
2022-08-03T12:21:28.925Z,29.94
2022-08-03T12:24:00.756Z,30.21
2022-08-03T12:26:29.341Z,31.56
2022-08-03T12:28:57.523Z,29.88
2022-08-03T12:31:25.696Z,29.90
2022-08-03T12:34:02.686Z,29.75
2022-08-03T12:36:33.357Z,30.34
2022-08-03T12:39:04.171Z,31.31
2022-08-03T12:41:35.470Z,33.69
2022-08-03T12:44:04.379Z,30.80
2022-08-03T12:46:42.717Z,32.56
2022-08-03T12:49:15.457Z,31.06
2022-08-03T12:52:03.901Z,31.77
2022-08-03T12:54:36.057Z,31.83
2022-08-03T12:57:05.432Z,31.08
2022-08-03T12:59:40.716Z,32.68
2022-08-03T13:02:16.794Z,32.29
2022-08-03T13:04:47.418Z,31.83
2022-08-03T13:07:19.385Z,33.27
2022-08-03T13:09:48.904Z,33.01
2022-08-03T13:12:18.354Z,32.00
2022-08-03T13:14:47.402Z,31.30
2022-08-03T13:17:16.776Z,32.53
2022-08-03T13:19:46.433Z,31.90
2022-08-03T13:22:16.728Z,31.69
2022-08-03T13:24:45.726Z,31.81
2022-08-03T13:28:00.005Z,31.41
2022-08-03T13:30:03.879Z,31.61
2022-08-03T13:32:31.848Z,32.15
2022-08-03T13:34:59.560Z,31.35
2022-08-03T13:37:28.619Z,32.54
2022-08-03T13:39:59.558Z,32.84
2022-08-03T13:42:30.528Z,31.93
2022-08-03T13:44:58.750Z,30.00
2022-08-03T13:47:26.522Z,31.25
2022-08-03T13:50:00.385Z,30.56
2022-08-03T13:52:32.299Z,32.26
2022-08-03T13:55:00.353Z,31.61
2022-08-03T13:58:03.563Z,30.98
2022-08-03T14:00:26.944Z,31.30
2022-08-03T14:03:06.614Z,32.44
2022-08-03T14:05:38.299Z,31.26
2022-08-03T14:08:08.171Z,31.95
2022-08-03T14:10:36.847Z,30.23
2022-08-03T14:13:05.221Z,30.06
2022-08-03T14:15:37.690Z,33.10
2022-08-03T14:18:06.592Z,32.05
2022-08-03T14:20:37.926Z,31.79
2022-08-03T14:23:08.673Z,31.17
2022-08-03T14:25:50.000Z,31.26
2022-08-03T14:28:18.963Z,31.43
2022-08-03T14:30:46.688Z,33.05
2022-08-03T14:33:14.340Z,32.25
2022-08-03T14:35:42.021Z,32.29
2022-08-03T14:38:11.085Z,31.64
2022-08-03T14:40:38.828Z,32.12
2022-08-03T14:43:06.718Z,32.29
2022-08-03T14:45:37.299Z,32.26
2022-08-03T14:50:33.073Z,32.42
2022-08-03T14:50:55.140Z,30.91
2022-08-03T14:53:24.266Z,31.15
2022-08-03T14:55:53.416Z,32.46
2022-08-03T14:58:22.156Z,32.01
2022-08-03T15:00:50.914Z,34.11
2022-08-03T15:03:20.364Z,33.29
2022-08-03T15:05:48.507Z,32.04
2022-08-03T15:08:16.231Z,31.55
2022-08-03T15:10:45.724Z,31.97
2022-08-03T15:13:13.541Z,31.61
2022-08-03T15:15:42.238Z,31.86
2022-08-03T15:18:10.482Z,33.35
2022-08-03T15:20:44.940Z,32.13
2022-08-03T15:23:15.135Z,30.95
2022-08-03T15:26:28.677Z,31.91
2022-08-03T15:28:32.126Z,30.51
2022-08-03T15:30:59.854Z,29.33
2022-08-03T15:33:27.707Z,30.34
2022-08-03T15:35:56.207Z,31.17
2022-08-03T15:38:25.806Z,30.83
2022-08-03T15:40:54.452Z,31.81
2022-08-03T15:43:22.238Z,31.21
2022-08-03T15:46:19.037Z,29.82
2022-08-03T15:48:39.211Z,29.86
2022-08-03T15:51:07.269Z,29.71
2022-08-03T15:53:38.219Z,30.04
2022-08-03T15:56:13.290Z,30.69
2022-08-03T15:59:10.360Z,29.21
2022-08-03T16:01:32.838Z,28.71
2022-08-03T16:04:00.623Z,29.02
2022-08-03T16:06:35.300Z,29.12
2022-08-03T16:09:22.910Z,30.00
2022-08-03T16:11:54.428Z,30.23
2022-08-03T16:14:32.709Z,31.07
2022-08-03T16:17:05.229Z,30.73
2022-08-03T16:19:32.956Z,30.62
2022-08-03T16:22:01.250Z,30.90
2022-08-03T16:24:28.964Z,29.90
2022-08-03T16:26:56.702Z,29.58
2022-08-03T16:29:24.474Z,30.27
2022-08-03T16:31:53.343Z,30.08
2022-08-03T16:34:22.371Z,30.93
2022-08-03T16:36:50.060Z,31.21
2022-08-03T16:39:18.887Z,30.62
2022-08-03T16:41:54.360Z,30.50
2022-08-03T16:44:29.641Z,30.97
2022-08-03T16:46:57.357Z,31.05
2022-08-03T16:49:54.966Z,31.23
2022-08-03T16:52:14.374Z,31.67
2022-08-03T16:54:50.617Z,31.46
2022-08-03T16:57:55.911Z,32.35
2022-08-03T17:00:10.560Z,31.84
2022-08-03T17:02:39.386Z,32.16
2022-08-03T17:05:17.531Z,32.71
2022-08-03T17:07:50.639Z,31.83
2022-08-03T17:10:26.983Z,31.97
2022-08-03T17:12:58.067Z,32.59
2022-08-03T17:15:38.328Z,32.71
2022-08-03T17:18:18.180Z,32.61
2022-08-03T17:20:52.784Z,32.22
2022-08-03T17:23:34.300Z,32.08
2022-08-03T17:26:08.236Z,31.82
2022-08-03T17:28:50.148Z,32.45
2022-08-03T17:31:32.039Z,32.93
2022-08-03T17:34:01.958Z,33.01
2022-08-03T17:37:02.204Z,32.15
2022-08-03T17:39:41.888Z,32.73
2022-08-03T17:42:30.657Z,33.41
2022-08-03T17:45:02.191Z,33.65
2022-08-03T17:47:42.671Z,34.10
2022-08-03T17:50:24.067Z,33.88
2022-08-03T17:53:07.937Z,33.58
2022-08-03T17:55:56.582Z,34.69
2022-08-03T17:58:41.213Z,34.28
2022-08-03T18:02:02.589Z,35.34
2022-08-03T18:04:29.683Z,35.46
2022-08-03T18:06:59.901Z,36.24
2022-08-03T18:10:05.906Z,37.21
2022-08-03T18:12:27.757Z,36.40
2022-08-03T18:15:01.532Z,37.36
2022-08-03T18:17:58.203Z,36.90
2022-08-03T18:20:34.072Z,36.82
2022-08-03T18:23:07.231Z,36.65
2022-08-03T18:25:44.917Z,36.90
2022-08-03T18:28:23.242Z,37.37
2022-08-03T18:30:54.411Z,37.52
2022-08-03T18:34:17.133Z,37.71
2022-08-03T18:36:17.853Z,38.67
2022-08-03T18:38:48.075Z,39.26
2022-08-03T18:41:32.871Z,41.28
2022-08-03T18:44:06.838Z,41.48
2022-08-03T18:46:46.361Z,42.23
2022-08-03T18:49:29.211Z,41.23
2022-08-03T18:52:03.659Z,43.27
2022-08-03T18:54:58.258Z,44.38
2022-08-03T18:57:37.996Z,44.75
2022-08-03T19:00:10.509Z,44.43
2022-08-03T19:02:48.652Z,46.45
2022-08-03T19:05:20.352Z,44.81
2022-08-03T19:07:59.588Z,45.51
2022-08-03T19:10:34.573Z,45.57
2022-08-03T19:13:11.454Z,47.01
2022-08-03T19:15:51.506Z,47.26
2022-08-03T19:18:21.916Z,48.68
2022-08-03T19:20:54.817Z,47.36
2022-08-03T19:23:25.936Z,48.83
2022-08-03T19:26:00.114Z,49.79
2022-08-03T19:28:31.019Z,47.86
2022-08-03T19:31:02.694Z,48.46
2022-08-03T19:33:55.987Z,49.66
2022-08-03T19:36:27.263Z,47.79
2022-08-03T19:38:59.744Z,47.38
2022-08-03T19:41:42.180Z,46.81
2022-08-03T19:44:20.437Z,45.46
2022-08-03T19:46:54.962Z,46.77
2022-08-03T19:49:57.094Z,46.42
2022-08-03T19:52:16.679Z,46.42
2022-08-03T19:54:54.654Z,46.76
2022-08-03T19:57:24.687Z,45.95
2022-08-03T19:59:55.019Z,45.75
2022-08-03T20:02:26.694Z,45.23
2022-08-03T20:04:55.318Z,45.32
2022-08-03T20:07:24.718Z,44.48
2022-08-03T20:09:56.611Z,44.79
2022-08-03T20:12:27.614Z,44.29
2022-08-03T20:14:58.861Z,44.73
2022-08-03T20:17:55.606Z,44.82
2022-08-03T20:20:20.166Z,45.52
2022-08-03T20:22:53.584Z,45.69
2022-08-03T20:25:38.228Z,46.07
2022-08-03T20:28:14.455Z,46.29
2022-08-03T20:30:47.125Z,44.89
2022-08-03T20:33:18.729Z,45.13
2022-08-03T20:35:49.200Z,45.62
2022-08-03T20:38:17.497Z,45.41
2022-08-03T20:40:46.473Z,45.88
2022-08-03T20:43:14.397Z,45.38
2022-08-03T20:48:33.614Z,45.74
2022-08-03T20:51:01.781Z,45.63
2022-08-03T20:53:57.411Z,45.56
2022-08-03T20:56:20.445Z,46.66
2022-08-03T20:58:50.181Z,45.90
2022-08-03T21:01:27.738Z,46.26
2022-08-03T21:03:56.062Z,46.12
2022-08-03T21:06:27.939Z,47.11
2022-08-03T21:09:05.198Z,46.42
2022-08-03T21:11:41.942Z,46.35
2022-08-03T21:13:07.322Z,46.07
2022-08-03T21:14:16.481Z,46.89
2022-08-03T21:16:46.718Z,47.77
2022-08-03T21:19:18.444Z,47.85
2022-08-03T21:21:49.108Z,48.46
2022-08-03T21:24:22.898Z,48.76
2022-08-03T21:26:54.931Z,50.96
2022-08-03T21:29:23.312Z,51.27
2022-08-03T21:31:52.737Z,51.37
2022-08-03T21:34:21.939Z,52.26
2022-08-03T21:36:50.600Z,52.55
2022-08-03T21:39:18.903Z,51.97
2022-08-03T21:41:53.028Z,52.86
2022-08-03T21:44:28.698Z,52.51
2022-08-03T21:47:00.195Z,53.23
2022-08-03T21:50:04.514Z,52.35
2022-08-03T21:52:23.217Z,52.92
2022-08-03T21:54:52.284Z,53.36
2022-08-03T21:57:23.380Z,52.19
2022-08-03T21:59:55.467Z,52.99
2022-08-03T22:02:28.383Z,56.57
2022-08-03T22:04:59.621Z,53.77
2022-08-03T22:07:29.671Z,52.74
2022-08-03T22:09:59.577Z,53.04
2022-08-03T22:12:32.534Z,53.22
2022-08-03T22:15:02.887Z,52.37
2022-08-03T22:17:55.384Z,52.78
2022-08-03T22:20:23.541Z,52.56
2022-08-03T22:22:56.580Z,54.15
2022-08-03T22:25:28.934Z,54.24
2022-08-03T22:27:58.306Z,54.15
2022-08-03T22:30:26.840Z,54.92
2022-08-03T22:32:57.954Z,54.88
2022-08-03T22:35:27.767Z,54.65
2022-08-03T22:37:56.860Z,55.06
2022-08-03T22:40:27.856Z,56.06
2022-08-03T22:42:56.053Z,55.79
2022-08-03T22:46:06.876Z,57.50
2022-08-03T22:48:17.710Z,57.11
2022-08-03T22:50:46.379Z,59.42
2022-08-03T22:53:17.349Z,59.86
2022-08-03T22:55:45.777Z,58.40
2022-08-03T22:58:16.847Z,60.01
2022-08-03T23:00:53.595Z,59.25
2022-08-03T23:03:59.763Z,60.84
2022-08-03T23:06:20.098Z,60.50
2022-08-03T23:08:48.749Z,61.00
2022-08-03T23:11:19.357Z,61.67
2022-08-03T23:13:48.481Z,61.72
2022-08-03T23:16:28.954Z,62.11
2022-08-03T23:18:59.659Z,63.88
2022-08-03T23:21:53.971Z,64.47
2022-08-03T23:24:29.390Z,66.70
2022-08-03T23:26:59.432Z,67.18
2022-08-03T23:29:29.844Z,67.89
2022-08-03T23:31:59.793Z,68.75
2022-08-03T23:34:47.332Z,68.20
2022-08-03T23:37:16.107Z,70.47
2022-08-03T23:39:49.800Z,70.27
2022-08-03T23:42:20.888Z,70.33
2022-08-03T23:44:55.744Z,70.57
2022-08-03T23:47:24.653Z,70.38
2022-08-03T23:50:15.050Z,72.39
2022-08-03T23:52:57.218Z,73.40
2022-08-03T23:55:45.800Z,72.34
2022-08-03T23:58:31.787Z,74.29
